Time,TemperatureF,DewpointF,PressureIn,WindDirection,WindDirectionDegrees,WindSpeedMPH,WindSpeedGustMPH,Humidity,HourlyPrecipIn,Conditions,Clouds,dailyrainin,SoftwareType,DateUTC
2013-04-01 00:00:00,44.6,40.4,29.67,NE,45,0.0,0.0,86,0.00,,,0.00,WUHU21623XXSP,2013-04-01 04:00:00,
2013-04-01 00:05:00,44.6,40.7,29.67,SW,225,0.0,1.6,86,0.00,,,0.00,WUHU21623XXSP,2013-04-01 04:05:00,
2013-04-01 00:10:00,44.4,40.7,29.67,SW,225,0.0,1.6,86,0.00,,,0.00,WUHU21623XXSP,2013-04-01 04:10:00,
2013-04-01 00:12:00,44.4,40.5,29.67,NE,45,0.0,1.6,86,0.00,,,0.00,WUHU21623XXSP,2013-04-01 04:12:00,
2013-04-01 00:17:00,44.4,40.5,29.67,SSE,157,1.3,1.6,86,0.00,,,0.00,WUHU21623XXSP,2013-04-01 04:17:00,
2013-04-01 00:22:00,44.4,40.5,29.67,SE,135,1.3,1.6,86,0.00,,,0.00,WUHU21623XXSP,2013-04-01 04:22:00,
2013-04-01 00:27:00,44.4,40.5,29.66,South,180,0.0,1.3,86,0.00,,,0.00,WUHU21623XXSP,2013-04-01 04:27:00,
2013-04-01 00:32:00,44.4,40.5,29.66,SSE,157,0.0,1.3,86,0.00,,,0.00,WUHU21623XXSP,2013-04-01 04:32:00,
2013-04-01 00:37:00,44.4,40.5,29.67,SE,135,1.8,1.8,86,0.00,,,0.00,WUHU21623XXSP,2013-04-01 04:37:00,
2013-04-01 00:42:00,44.2,40.3,29.67,SSE,157,0.0,1.8,86,0.00,,,0.00,WUHU21623XXSP,2013-04-01 04:42:00,
2013-04-01 00:47:00,44.2,40.3,29.67,SSE,157,0.0,0.0,87,0.00,,,0.00,WUHU21623XXSP,2013-04-01 04:47:00,
2013-04-01 00:52:00,44.2,40.6,29.66,SE,135,0.0,0.0,87,0.00,,,0.00,WUHU21623XXSP,2013-04-01 04:52:00,
2013-04-01 00:57:00,44.2,40.6,29.66,WSW,247,0.0,1.3,87,0.00,,,0.00,WUHU21623XXSP,2013-04-01 04:57:00,
2013-04-01 01:02:00,44.2,40.6,29.66,WSW,247,0.0,1.3,87,0.00,,,0.00,WUHU21623XXSP,2013-04-01 05:02:00,
2013-04-01 01:08:00,44.2,40.6,29.66,ESE,112,0.0,0.0,87,0.00,,,0.00,WUHU21623XXSP,2013-04-01 05:08:00,
2013-04-01 01:13:00,44.2,40.6,29.65,ESE,112,0.0,0.0,87,0.00,,,0.00,WUHU21623XXSP,2013-04-01 05:13:00,
2013-04-01 01:18:00,44.4,40.8,29.66,SSW,202,2.9,2.9,87,0.00,,,0.00,WUHU21623XXSP,2013-04-01 05:18:00,
2013-04-01 01:23:00,44.6,41.3,29.66,ENE,67,0.0,2.9,88,0.00,,,0.00,WUHU21623XXSP,2013-04-01 05:23:00,
2013-04-01 01:28:00,44.8,41.5,29.66,West,270,1.3,1.6,88,0.00,,,0.00,WUHU21623XXSP,2013-04-01 05:28:00,
2013-04-01 01:33:00,44.8,41.5,29.65,South,180,1.6,1.6,88,0.00,,,0.00,WUHU21623XXSP,2013-04-01 05:33:00,
2013-04-01 01:38:00,45.0,41.6,29.65,NE,45,0.0,1.6,88,0.00,,,0.00,WUHU21623XXSP,2013-04-01 05:38:00,
2013-04-01 01:43:00,45.0,41.6,29.65,East,90,0.0,1.3,88,0.00,,,0.00,WUHU21623XXSP,2013-04-01 05:43:00,
2013-04-01 01:48:00,45.1,41.5,29.65,ESE,112,0.0,0.0,87,0.00,,,0.00,WUHU21623XXSP,2013-04-01 05:48:00,
2013-04-01 01:53:00,45.1,41.5,29.65,SE,135,0.0,0.0,87,0.00,,,0.00,WUHU21623XXSP,2013-04-01 05:53:00,
2013-04-01 01:58:00,45.1,41.5,29.66,NNW,337,2.5,2.5,87,0.00,,,0.00,WUHU21623XXSP,2013-04-01 05:58:00,
2013-04-01 02:03:00,45.5,41.9,29.66,SW,225,11.2,11.2,87,0.00,,,0.00,WUHU21623XXSP,2013-04-01 06:03:00,
2013-04-01 02:08:00,45.5,41.9,29.66,NW,315,4.7,11.2,87,0.00,,,0.00,WUHU21623XXSP,2013-04-01 06:08:00,
2013-04-01 02:13:00,45.7,42.1,29.66,NW,315,4.7,4.7,87,0.00,,,0.00,WUHU21623XXSP,2013-04-01 06:13:00,
2013-04-01 02:18:00,45.5,41.9,29.66,NW,315,0.0,5.8,87,0.00,,,0.00,WUHU21623XXSP,2013-04-01 06:18:00,
2013-04-01 02:23:00,45.3,41.7,29.65,NNW,337,0.0,5.8,87,0.00,,,0.00,WUHU21623XXSP,2013-04-01 06:23:00,
2013-04-01 02:28:00,45.3,41.7,29.66,NW,315,1.3,1.3,87,0.00,,,0.00,WUHU21623XXSP,2013-04-01 06:28:00,
2013-04-01 02:33:00,45.1,41.5,29.65,SW,225,0.0,1.3,87,0.00,,,0.00,WUHU21623XXSP,2013-04-01 06:33:00,
2013-04-01 02:38:00,45.1,41.5,29.65,WNW,292,0.0,0.0,87,0.00,,,0.00,WUHU21623XXSP,2013-04-01 06:38:00,
2013-04-01 02:43:00,45.0,41.3,29.65,NNW,337,0.0,2.0,87,0.00,,,0.00,WUHU21623XXSP,2013-04-01 06:43:00,
2013-04-01 02:48:00,45.0,41.3,29.65,NE,45,1.1,2.0,87,0.00,,,0.00,WUHU21623XXSP,2013-04-01 06:48:00,
2013-04-01 02:53:00,45.0,41.3,29.64,WSW,247,0.0,1.1,87,0.00,,,0.00,WUHU21623XXSP,2013-04-01 06:53:00,
2013-04-01 02:58:00,45.0,41.3,29.64,SSW,202,2.7,2.7,87,0.00,,,0.00,WUHU21623XXSP,2013-04-01 06:58:00,
2013-04-01 03:03:00,45.0,41.6,29.64,West,270,1.1,2.7,88,0.00,,,0.00,WUHU21623XXSP,2013-04-01 07:03:00,
2013-04-01 03:08:00,45.0,41.6,29.64,ENE,67,0.0,1.1,88,0.00,,,0.00,WUHU21623XXSP,2013-04-01 07:08:00,
2013-04-01 03:13:00,45.0,41.6,29.65,NNE,22,0.0,0.0,88,0.00,,,0.00,WUHU21623XXSP,2013-04-01 07:13:00,
2013-04-01 03:18:00,45.0,41.3,29.64,NNE,22,0.0,1.3,87,0.00,,,0.00,WUHU21623XXSP,2013-04-01 07:18:00,
2013-04-01 03:23:00,44.8,41.2,29.65,NNE,22,1.3,1.3,87,0.00,,,0.00,WUHU21623XXSP,2013-04-01 07:23:00,
2013-04-01 03:28:00,44.8,41.2,29.65,NE,45,0.0,1.3,87,0.00,,,0.00,WUHU21623XXSP,2013-04-01 07:28:00,
2013-04-01 03:33:00,44.4,40.8,29.65,ESE,112,1.3,1.3,87,0.00,,,0.00,WUHU21623XXSP,2013-04-01 07:33:00,
2013-04-01 03:38:00,44.4,40.8,29.65,NE,45,0.0,1.8,87,0.00,,,0.00,WUHU21623XXSP,2013-04-01 07:38:00,
2013-04-01 03:43:00,44.2,40.6,29.65,NE,45,0.0,1.8,87,0.00,,,0.00,WUHU21623XXSP,2013-04-01 07:43:00,
2013-04-01 03:48:00,44.2,40.6,29.65,ENE,67,0.0,0.0,87,0.00,,,0.00,WUHU21623XXSP,2013-04-01 07:48:00,
2013-04-01 03:53:00,43.9,40.4,29.65,South,180,2.2,2.2,87,0.00,,,0.00,WUHU21623XXSP,2013-04-01 07:53:00,
2013-04-01 03:58:00,44.2,40.6,29.65,ESE,112,1.6,2.2,87,0.00,,,0.00,WUHU21623XXSP,2013-04-01 07:58:00,
2013-04-01 04:03:00,44.2,40.6,29.65,WSW,247,0.0,1.6,87,0.00,,,0.00,WUHU21623XXSP,2013-04-01 08:03:00,
2013-04-01 04:08:00,44.4,40.8,29.65,West,270,0.0,1.6,87,0.00,,,0.00,WUHU21623XXSP,2013-04-01 08:08:00,
2013-04-01 04:13:00,44.4,40.8,29.65,NW,315,1.1,1.8,87,0.00,,,0.00,WUHU21623XXSP,2013-04-01 08:13:00,
2013-04-01 04:18:00,44.4,40.8,29.65,South,180,0.0,2.2,87,0.00,,,0.00,WUHU21623XXSP,2013-04-01 08:18:00,
2013-04-01 04:23:00,44.8,41.2,29.65,NW,315,0.0,2.7,87,0.00,,,0.00,WUHU21623XXSP,2013-04-01 08:23:00,
2013-04-01 04:28:00,44.8,41.2,29.65,NW,315,2.0,2.7,87,0.00,,,0.00,WUHU21623XXSP,2013-04-01 08:28:00,
2013-04-01 04:33:00,45.0,41.0,29.65,NNW,337,2.0,3.6,86,0.00,,,0.00,WUHU21623XXSP,2013-04-01 08:33:00,
2013-04-01 04:38:00,45.0,41.0,29.65,NNW,337,2.5,3.6,86,0.00,,,0.00,WUHU21623XXSP,2013-04-01 08:38:00,
2013-04-01 04:43:00,45.1,41.2,29.65,NW,315,0.0,2.5,86,0.00,,,0.00,WUHU21623XXSP,2013-04-01 08:43:00,
2013-04-01 04:48:00,45.3,41.2,29.65,NW,315,2.0,2.5,86,0.00,,,0.00,WUHU21623XXSP,2013-04-01 08:48:00,
2013-04-01 04:53:00,45.3,41.1,29.65,NW,315,3.4,5.1,85,0.00,,,0.00,WUHU21623XXSP,2013-04-01 08:53:00,
2013-04-01 04:58:00,45.3,41.1,29.65,NW,315,3.1,5.1,85,0.00,,,0.00,WUHU21623XXSP,2013-04-01 08:58:00,
2013-04-01 05:03:00,45.3,41.1,29.65,WSW,247,0.0,3.4,85,0.00,,,0.00,WUHU21623XXSP,2013-04-01 09:03:00,
2013-04-01 05:08:00,45.3,41.1,29.65,WSW,247,2.5,6.0,85,0.00,,,0.00,WUHU21623XXSP,2013-04-01 09:08:00,
2013-04-01 05:13:00,45.1,40.9,29.65,SW,225,2.0,6.0,85,0.00,,,0.00,WUHU21623XXSP,2013-04-01 09:13:00,
2013-04-01 05:18:00,45.1,40.6,29.65,NNW,337,1.8,2.5,84,0.00,,,0.00,WUHU21623XXSP,2013-04-01 09:18:00,
2013-04-01 05:23:00,45.1,40.6,29.65,NW,315,0.0,3.6,84,0.00,,,0.00,WUHU21623XXSP,2013-04-01 09:23:00,
2013-04-01 05:28:00,45.1,40.6,29.65,WSW,247,4.7,4.7,84,0.00,,,0.00,WUHU21623XXSP,2013-04-01 09:28:00,
2013-04-01 05:33:00,45.0,40.4,29.65,WNW,292,2.5,4.7,84,0.00,,,0.00,WUHU21623XXSP,2013-04-01 09:33:00,
2013-04-01 05:38:00,45.0,40.4,29.65,North,0,5.6,5.6,84,0.00,,,0.00,WUHU21623XXSP,2013-04-01 09:38:00,
2013-04-01 05:43:00,45.0,40.4,29.65,WNW,292,1.1,5.6,84,0.00,,,0.00,WUHU21623XXSP,2013-04-01 09:43:00,
2013-04-01 05:49:00,45.0,40.4,29.65,SW,225,0.7,2.5,84,0.00,,,0.00,WUHU21623XXSP,2013-04-01 09:49:00,
2013-04-01 05:54:00,45.0,40.1,29.66,NW,315,0.0,2.0,83,0.00,,,0.00,WUHU21623XXSP,2013-04-01 09:54:00,
2013-04-01 05:59:00,45.0,40.1,29.66,NNW,337,0.9,2.7,83,0.00,,,0.00,WUHU21623XXSP,2013-04-01 09:59:00,
2013-04-01 06:04:00,45.0,40.1,29.66,West,270,1.1,6.0,83,0.00,,,0.00,WUHU21623XXSP,2013-04-01 10:04:00,
2013-04-01 06:09:00,45.0,40.1,29.66,NW,315,3.6,6.0,83,0.00,,,0.00,WUHU21623XXSP,2013-04-01 10:09:00,
2013-04-01 06:14:00,44.8,39.6,29.66,NW,315,2.0,3.6,82,0.00,,,0.00,WUHU21623XXSP,2013-04-01 10:14:00,
2013-04-01 06:19:00,44.8,39.6,29.67,NNW,337,4.5,4.5,82,0.00,,,0.00,WUHU21623XXSP,2013-04-01 10:19:00,
2013-04-01 06:24:00,44.8,39.6,29.67,NNW,337,4.5,4.5,82,0.00,,,0.00,WUHU21623XXSP,2013-04-01 10:24:00,
2013-04-01 06:29:00,44.6,39.5,29.67,NW,315,0.0,4.5,82,0.00,,,0.00,WUHU21623XXSP,2013-04-01 10:29:00,
2013-04-01 06:34:00,44.4,39.3,29.67,SSW,202,3.4,9.6,82,0.00,,,0.00,WUHU21623XXSP,2013-04-01 10:34:00,
2013-04-01 06:39:00,44.4,39.3,29.67,NW,315,2.9,9.6,82,0.00,,,0.00,WUHU21623XXSP,2013-04-01 10:39:00,
2013-04-01 06:44:00,44.4,39.3,29.68,NW,315,3.6,3.6,82,0.00,,,0.00,WUHU21623XXSP,2013-04-01 10:44:00,
2013-04-01 06:49:00,44.4,39.3,29.68,NW,315,4.3,4.3,82,0.00,,,0.00,WUHU21623XXSP,2013-04-01 10:49:00,
2013-04-01 06:54:00,44.4,39.3,29.69,NW,315,4.7,4.7,82,0.00,,,0.00,WUHU21623XXSP,2013-04-01 10:54:00,
2013-04-01 06:59:00,44.4,38.3,29.69,WNW,292,3.4,6.7,79,0.00,,,0.00,WUHU21623XXSP,2013-04-01 10:59:00,
2013-04-01 07:04:00,44.2,37.5,29.69,NNW,337,2.5,6.7,77,0.00,,,0.00,WUHU21623XXSP,2013-04-01 11:04:00,
2013-04-01 07:09:00,44.2,37.1,29.69,NW,315,1.6,6.3,76,0.00,,,0.00,WUHU21623XXSP,2013-04-01 11:09:00,
2013-04-01 07:14:00,43.9,36.1,29.70,WNW,292,2.9,11.2,74,0.00,,,0.00,WUHU21623XXSP,2013-04-01 11:14:00,
2013-04-01 07:19:00,43.9,35.4,29.70,SW,225,0.9,11.2,72,0.00,,,0.00,WUHU21623XXSP,2013-04-01 11:19:00,
2013-04-01 07:24:00,43.5,34.8,29.70,NW,315,4.5,6.0,71,0.00,,,0.00,WUHU21623XXSP,2013-04-01 11:24:00,
2013-04-01 07:29:00,43.3,34.4,29.71,NW,315,7.6,7.6,70,0.00,,,0.00,WUHU21623XXSP,2013-04-01 11:29:00,
2013-04-01 07:34:00,43.2,33.7,29.72,NW,315,7.2,7.6,69,0.00,,,0.00,WUHU21623XXSP,2013-04-01 11:34:00,
2013-04-01 07:39:00,43.2,33.3,29.72,WNW,292,3.1,7.6,68,0.00,,,0.00,WUHU21623XXSP,2013-04-01 11:39:00,
2013-04-01 07:43:00,43.0,32.8,29.72,NW,315,0.0,4.7,67,0.00,,,0.00,WUHU21623XXSP,2013-04-01 11:43:00,
2013-04-01 07:48:00,43.0,32.8,29.72,NW,315,5.4,5.4,67,0.00,,,0.00,WUHU21623XXSP,2013-04-01 11:48:00,
2013-04-01 07:54:00,43.0,32.8,29.73,SW,225,4.3,5.4,67,0.00,,,0.00,WUHU21623XXSP,2013-04-01 11:54:00,
2013-04-01 07:58:00,43.0,32.2,29.73,NW,315,4.7,4.7,66,0.00,,,0.00,WUHU21623XXSP,2013-04-01 11:58:00,
2013-04-01 08:04:00,42.8,32.4,29.73,NW,315,4.7,4.7,66,0.00,,,0.00,WUHU21623XXSP,2013-04-01 12:04:00,
2013-04-01 08:09:00,42.6,31.6,29.74,NW,315,9.4,9.4,65,0.00,,,0.00,WUHU21623XXSP,2013-04-01 12:09:00,
2013-04-01 08:14:00,42.4,31.9,29.75,WNW,292,8.7,9.4,66,0.00,,,0.00,WUHU21623XXSP,2013-04-01 12:14:00,
2013-04-01 08:19:00,42.1,31.9,29.75,NW,315,6.9,9.4,66,0.00,,,0.00,WUHU21623XXSP,2013-04-01 12:19:00,
2013-04-01 08:24:00,42.1,31.9,29.75,NW,315,6.7,8.7,67,0.00,,,0.00,WUHU21623XXSP,2013-04-01 12:24:00,
2013-04-01 08:29:00,41.7,31.6,29.75,NW,315,3.4,6.9,68,0.00,,,0.00,WUHU21623XXSP,2013-04-01 12:29:00,
2013-04-01 08:34:00,41.5,31.9,29.75,NW,315,3.4,4.3,68,0.00,,,0.00,WUHU21623XXSP,2013-04-01 12:34:00,
2013-04-01 08:39:00,41.2,31.8,29.75,NW,315,3.4,3.4,68,0.00,,,0.00,WUHU21623XXSP,2013-04-01 12:39:00,
2013-04-01 08:44:00,40.6,31.3,29.76,NNW,337,10.5,10.5,69,0.00,,,0.00,WUHU21623XXSP,2013-04-01 12:44:00,
2013-04-01 08:49:00,39.9,30.7,29.77,NW,315,8.9,10.5,68,0.00,,,0.00,WUHU21623XXSP,2013-04-01 12:49:00,
2013-04-01 08:54:00,39.6,29.8,29.77,NW,315,6.7,10.5,68,0.00,,,0.00,WUHU21623XXSP,2013-04-01 12:54:00,
2013-04-01 08:59:00,39.0,29.7,29.77,WNW,292,2.0,10.1,69,0.00,,,0.00,WUHU21623XXSP,2013-04-01 12:59:00,
2013-04-01 09:04:00,39.0,30.0,29.77,NW,315,2.9,6.7,70,0.00,,,0.00,WUHU21623XXSP,2013-04-01 13:04:00,
2013-04-01 09:09:00,39.2,30.5,29.77,West,270,2.0,2.9,71,0.00,,,0.00,WUHU21623XXSP,2013-04-01 13:09:00,
2013-04-01 09:14:00,39.4,31.0,29.78,SW,225,2.9,2.9,72,0.00,,,0.00,WUHU21623XXSP,2013-04-01 13:14:00,
2013-04-01 09:19:00,39.4,31.0,29.78,NW,315,3.1,3.1,72,0.00,,,0.00,WUHU21623XXSP,2013-04-01 13:19:00,
2013-04-01 09:24:00,39.7,31.4,29.78,SSW,202,1.3,3.1,72,0.00,,,0.00,WUHU21623XXSP,2013-04-01 13:24:00,
2013-04-01 09:29:00,39.9,31.6,29.77,WNW,292,2.2,2.2,72,0.00,,,0.00,WUHU21623XXSP,2013-04-01 13:29:00,
2013-04-01 09:34:00,40.3,31.6,29.77,NW,315,6.9,6.9,71,0.00,,,0.00,WUHU21623XXSP,2013-04-01 13:34:00,
2013-04-01 09:39:00,40.6,31.5,29.77,NW,315,0.0,6.9,70,0.00,,,0.00,WUHU21623XXSP,2013-04-01 13:39:00,
2013-04-01 09:44:00,41.5,32.4,29.77,NW,315,0.9,2.0,70,0.00,,,0.00,WUHU21623XXSP,2013-04-01 13:44:00,
2013-04-01 09:49:00,41.5,32.5,29.78,SW,225,2.2,2.2,70,0.00,,,0.00,WUHU21623XXSP,2013-04-01 13:49:00,
2013-04-01 09:54:00,41.5,32.5,29.78,SSE,157,2.0,2.9,70,0.00,,,0.00,WUHU21623XXSP,2013-04-01 13:54:00,
2013-04-01 09:59:00,41.4,32.4,29.78,SW,225,8.7,8.7,70,0.00,,,0.00,WUHU21623XXSP,2013-04-01 13:59:00,
2013-04-01 10:04:00,41.5,32.5,29.78,SSW,202,5.6,8.7,70,0.00,,,0.00,WUHU21623XXSP,2013-04-01 14:04:00,
2013-04-01 10:09:00,41.5,32.9,29.78,NE,45,0.9,8.7,71,0.00,,,0.00,WUHU21623XXSP,2013-04-01 14:09:00,
2013-04-01 10:14:00,41.5,32.9,29.78,NW,315,2.5,4.5,71,0.00,,,0.00,WUHU21623XXSP,2013-04-01 14:14:00,
2013-04-01 10:19:00,41.2,32.2,29.78,NW,315,2.9,3.1,70,0.00,,,0.00,WUHU21623XXSP,2013-04-01 14:19:00,
2013-04-01 10:24:00,40.8,31.8,29.79,NW,315,7.6,7.6,70,0.00,,,0.00,WUHU21623XXSP,2013-04-01 14:24:00,
2013-04-01 10:29:00,40.1,31.1,29.79,WNW,292,1.6,7.6,70,0.00,,,0.00,WUHU21623XXSP,2013-04-01 14:29:00,
2013-04-01 10:34:00,39.7,31.2,29.80,SSW,202,2.2,2.2,72,0.00,,,0.00,WUHU21623XXSP,2013-04-01 14:34:00,
2013-04-01 10:39:00,39.4,31.2,29.80,SSW,202,2.2,2.2,72,0.00,,,0.00,WUHU21623XXSP,2013-04-01 14:39:00,
2013-04-01 10:44:00,39.0,31.0,29.80,NW,315,7.8,7.8,73,0.00,,,0.00,WUHU21623XXSP,2013-04-01 14:44:00,
2013-04-01 10:49:00,38.5,30.5,29.80,NW,315,8.5,8.5,73,0.00,,,0.00,WUHU21623XXSP,2013-04-01 14:49:00,
2013-04-01 10:54:00,37.6,30.7,29.81,NW,315,4.7,8.9,76,0.00,,,0.00,WUHU21623XXSP,2013-04-01 14:54:00,
2013-04-01 10:59:00,36.7,30.3,29.82,North,0,5.1,8.9,77,0.00,,,0.00,WUHU21623XXSP,2013-04-01 14:59:00,
2013-04-01 11:04:00,36.3,30.1,29.82,North,0,5.1,5.1,78,0.00,,,0.00,WUHU21623XXSP,2013-04-01 15:04:00,
2013-04-01 11:09:00,34.9,29.0,29.82,NNW,337,9.6,10.3,79,0.00,,,0.00,WUHU21623XXSP,2013-04-01 15:09:00,
2013-04-01 11:14:00,34.3,28.4,29.83,NNW,337,4.9,10.3,79,0.00,,,0.00,WUHU21623XXSP,2013-04-01 15:14:00,
2013-04-01 11:19:00,34.3,28.8,29.83,NW,315,9.2,9.2,80,0.00,,,0.00,WUHU21623XXSP,2013-04-01 15:19:00,
2013-04-01 11:24:00,34.3,28.8,29.83,NNW,337,8.5,9.2,80,0.00,,,0.00,WUHU21623XXSP,2013-04-01 15:24:00,
2013-04-01 11:29:00,34.2,28.6,29.84,NW,315,13.6,13.6,80,0.00,,,0.00,WUHU21623XXSP,2013-04-01 15:29:00,
2013-04-01 11:34:00,34.0,28.4,29.84,NNW,337,6.5,13.6,80,0.00,,,0.00,WUHU21623XXSP,2013-04-01 15:34:00,
2013-04-01 11:39:00,34.3,28.8,29.84,NW,315,6.9,10.3,80,0.00,,,0.00,WUHU21623XXSP,2013-04-01 15:39:00,
2013-04-01 11:44:00,34.5,28.4,29.84,WNW,292,7.6,7.6,79,0.00,,,0.00,WUHU21623XXSP,2013-04-01 15:44:00,
2013-04-01 11:49:00,34.9,28.3,29.84,NW,315,4.7,7.6,77,0.00,,,0.00,WUHU21623XXSP,2013-04-01 15:49:00,
2013-04-01 11:54:00,35.2,28.3,29.85,NW,315,6.3,6.3,76,0.00,,,0.00,WUHU21623XXSP,2013-04-01 15:54:00,
2013-04-01 11:59:00,35.4,28.5,29.84,North,0,8.1,8.1,76,0.00,,,0.00,WUHU21623XXSP,2013-04-01 15:59:00,
2013-04-01 12:04:00,36.3,28.8,29.84,NW,315,4.5,11.9,74,0.00,,,0.00,WUHU21623XXSP,2013-04-01 16:04:00,
2013-04-01 12:09:00,36.5,29.0,29.85,NW,315,8.7,11.9,74,0.00,,,0.00,WUHU21623XXSP,2013-04-01 16:09:00,
2013-04-01 12:14:00,36.9,29.0,29.85,NNW,337,6.0,9.8,73,0.00,,,0.00,WUHU21623XXSP,2013-04-01 16:14:00,
2013-04-01 12:19:00,37.8,29.4,29.84,NW,315,6.3,10.3,73,0.00,,,0.00,WUHU21623XXSP,2013-04-01 16:19:00,
2013-04-01 12:24:00,38.3,30.1,29.85,WNW,292,8.7,10.3,72,0.00,,,0.00,WUHU21623XXSP,2013-04-01 16:24:00,
2013-04-01 12:29:00,38.8,29.9,29.85,NW,315,11.4,11.6,70,0.00,,,0.00,WUHU21623XXSP,2013-04-01 16:29:00,
2013-04-01 12:34:00,39.0,30.0,29.85,NW,315,2.9,11.6,70,0.00,,,0.00,WUHU21623XXSP,2013-04-01 16:34:00,
2013-04-01 12:39:00,39.4,29.6,29.84,NW,315,10.5,10.5,68,0.00,,,0.00,WUHU21623XXSP,2013-04-01 16:39:00,
2013-04-01 12:44:00,39.4,29.2,29.84,NW,315,10.5,10.5,67,0.00,,,0.00,WUHU21623XXSP,2013-04-01 16:44:00,
2013-04-01 12:49:00,39.9,29.8,29.84,NW,315,6.7,11.6,67,0.00,,,0.00,WUHU21623XXSP,2013-04-01 16:49:00,
2013-04-01 12:54:00,40.8,30.3,29.85,NW,315,8.3,11.6,66,0.00,,,0.00,WUHU21623XXSP,2013-04-01 16:54:00,
2013-04-01 12:59:00,41.4,30.5,29.85,NNW,337,8.5,8.5,65,0.00,,,0.00,WUHU21623XXSP,2013-04-01 16:59:00,
2013-04-01 13:04:00,40.6,29.8,29.86,NNW,337,8.9,9.4,65,0.00,,,0.00,WUHU21623XXSP,2013-04-01 17:04:00,
2013-04-01 13:09:00,39.9,29.0,29.86,WNW,292,5.1,9.4,65,0.00,,,0.00,WUHU21623XXSP,2013-04-01 17:09:00,
2013-04-01 13:14:00,39.4,28.9,29.85,NW,315,9.4,9.4,66,0.00,,,0.00,WUHU21623XXSP,2013-04-01 17:14:00,
2013-04-01 13:20:00,39.6,28.3,29.85,North,0,10.3,10.3,64,0.00,,,0.00,WUHU21623XXSP,2013-04-01 17:20:00,
2013-04-01 13:25:00,40.5,29.6,29.85,WNW,292,7.8,10.3,65,0.00,,,0.00,WUHU21623XXSP,2013-04-01 17:25:00,
2013-04-01 13:30:00,40.8,29.6,29.85,WNW,292,7.8,7.8,62,0.00,,,0.00,WUHU21623XXSP,2013-04-01 17:30:00,
2013-04-01 13:35:00,41.4,28.9,29.85,WNW,292,3.4,7.8,61,0.00,,,0.00,WUHU21623XXSP,2013-04-01 17:35:00,
2013-04-01 13:39:00,41.5,27.8,29.85,NW,315,8.3,8.3,58,0.00,,,0.00,WUHU21623XXSP,2013-04-01 17:39:00,
2013-04-01 13:44:00,41.5,27.6,29.85,WNW,292,3.4,8.3,57,0.00,,,0.00,WUHU21623XXSP,2013-04-01 17:44:00,
2013-04-01 13:49:00,41.7,26.9,29.85,WNW,292,10.3,10.3,54,0.00,,,0.00,WUHU21623XXSP,2013-04-01 17:49:00,
2013-04-01 13:54:00,41.7,26.2,29.85,WNW,292,10.3,10.3,54,0.00,,,0.00,WUHU21623XXSP,2013-04-01 17:54:00,
2013-04-01 13:59:00,42.6,27.5,29.85,NW,315,6.9,10.3,55,0.00,,,0.00,WUHU21623XXSP,2013-04-01 17:59:00,
2013-04-01 14:04:00,42.8,27.7,29.85,North,0,8.5,8.5,55,0.00,,,0.00,WUHU21623XXSP,2013-04-01 18:04:00,
2013-04-01 14:09:00,43.0,27.8,29.85,North,0,11.2,11.2,55,0.00,,,0.00,WUHU21623XXSP,2013-04-01 18:09:00,
2013-04-01 14:14:00,42.8,27.2,29.85,NW,315,7.2,11.4,54,0.00,,,0.00,WUHU21623XXSP,2013-04-01 18:14:00,
2013-04-01 14:19:00,41.9,25.9,29.86,NW,315,5.4,11.4,53,0.00,,,0.00,WUHU21623XXSP,2013-04-01 18:19:00,
2013-04-01 14:24:00,41.5,25.6,29.86,NNW,337,8.1,9.2,53,0.00,,,0.00,WUHU21623XXSP,2013-04-01 18:24:00,
2013-04-01 14:29:00,41.0,24.2,29.86,NW,315,8.9,9.4,51,0.00,,,0.00,WUHU21623XXSP,2013-04-01 18:29:00,
2013-04-01 14:34:00,41.2,24.3,29.85,WNW,292,2.2,9.4,51,0.00,,,0.00,WUHU21623XXSP,2013-04-01 18:34:00,
2013-04-01 14:39:00,41.9,25.1,29.85,NW,315,8.7,15.7,51,0.00,,,0.00,WUHU21623XXSP,2013-04-01 18:39:00,
2013-04-01 14:44:00,42.1,24.3,29.85,WNW,292,14.5,15.7,49,0.00,,,0.00,WUHU21623XXSP,2013-04-01 18:44:00,
2013-04-01 14:49:00,42.1,22.7,29.85,NW,315,8.7,15.0,46,0.00,,,0.00,WUHU21623XXSP,2013-04-01 18:49:00,
2013-04-01 14:54:00,42.3,22.8,29.85,NW,315,4.5,15.0,46,0.00,,,0.00,WUHU21623XXSP,2013-04-01 18:54:00,
2013-04-01 14:59:00,42.6,23.2,29.85,ESE,112,6.5,9.6,46,0.00,,,0.00,WUHU21623XXSP,2013-04-01 18:59:00,
2013-04-01 15:04:00,43.7,23.6,29.85,North,0,5.1,6.5,45,0.00,,,0.00,WUHU21623XXSP,2013-04-01 19:04:00,
2013-04-01 15:09:00,43.3,23.3,29.86,NW,315,10.1,10.1,45,0.00,,,0.00,WUHU21623XXSP,2013-04-01 19:09:00,
2013-04-01 15:14:00,42.6,23.2,29.86,NW,315,9.6,10.1,46,0.00,,,0.00,WUHU21623XXSP,2013-04-01 19:14:00,
2013-04-01 15:19:00,42.6,23.7,29.86,NW,315,2.9,9.6,47,0.00,,,0.00,WUHU21623XXSP,2013-04-01 19:19:00,
2013-04-01 15:24:00,43.0,24.1,29.86,WNW,292,4.7,8.1,47,0.00,,,0.00,WUHU21623XXSP,2013-04-01 19:24:00,
2013-04-01 15:29:00,43.3,23.3,29.86,NW,315,4.5,6.9,45,0.00,,,0.00,WUHU21623XXSP,2013-04-01 19:29:00,
2013-04-01 15:34:00,43.3,23.3,29.86,NW,315,10.3,10.3,45,0.00,,,0.00,WUHU21623XXSP,2013-04-01 19:34:00,
2013-04-01 15:39:00,42.4,22.5,29.86,NW,315,4.7,10.3,45,0.00,,,0.00,WUHU21623XXSP,2013-04-01 19:39:00,
2013-04-01 15:44:00,41.9,22.1,29.86,NW,315,6.7,6.9,45,0.00,,,0.00,WUHU21623XXSP,2013-04-01 19:44:00,
2013-04-01 15:49:00,42.1,21.6,29.86,NW,315,10.3,10.3,44,0.00,,,0.00,WUHU21623XXSP,2013-04-01 19:49:00,
2013-04-01 15:54:00,42.3,21.8,29.86,NW,315,7.6,10.3,44,0.00,,,0.00,WUHU21623XXSP,2013-04-01 19:54:00,
2013-04-01 15:59:00,42.4,21.9,29.86,NW,315,3.6,10.3,44,0.00,,,0.00,WUHU21623XXSP,2013-04-01 19:59:00,
2013-04-01 16:04:00,42.1,21.6,29.86,NNW,337,8.5,10.3,44,0.00,,,0.00,WUHU21623XXSP,2013-04-01 20:04:00,
2013-04-01 16:09:00,42.4,21.4,29.86,NW,315,10.7,10.7,43,0.00,,,0.00,WUHU21623XXSP,2013-04-01 20:09:00,
2013-04-01 16:14:00,42.6,21.6,29.86,North,0,0.9,10.7,43,0.00,,,0.00,WUHU21623XXSP,2013-04-01 20:14:00,
2013-04-01 16:19:00,43.0,21.4,29.86,NW,315,7.6,7.6,42,0.00,,,0.00,WUHU21623XXSP,2013-04-01 20:19:00,
2013-04-01 16:24:00,42.8,20.7,29.86,NW,315,6.0,7.6,41,0.00,,,0.00,WUHU21623XXSP,2013-04-01 20:24:00,
2013-04-01 16:29:00,42.6,20.5,29.87,NW,315,9.6,11.4,41,0.00,,,0.00,WUHU21623XXSP,2013-04-01 20:29:00,
2013-04-01 16:34:00,42.4,20.3,29.87,NW,315,8.9,11.4,40,0.00,,,0.00,WUHU21623XXSP,2013-04-01 20:34:00,
2013-04-01 16:39:00,42.1,20.0,29.87,North,0,5.8,8.9,41,0.00,,,0.00,WUHU21623XXSP,2013-04-01 20:39:00,
2013-04-01 16:44:00,42.6,20.5,29.87,WNW,292,4.5,6.0,41,0.00,,,0.00,WUHU21623XXSP,2013-04-01 20:44:00,
2013-04-01 16:49:00,43.2,21.0,29.86,NW,315,6.0,6.0,41,0.00,,,0.00,WUHU21623XXSP,2013-04-01 20:49:00,
2013-04-01 16:54:00,43.5,21.3,29.87,NW,315,11.6,11.6,41,0.00,,,0.00,WUHU21623XXSP,2013-04-01 20:54:00,
2013-04-01 16:59:00,43.3,20.6,29.87,NNW,337,8.1,11.6,40,0.00,,,0.00,WUHU21623XXSP,2013-04-01 20:59:00,
2013-04-01 17:04:00,43.0,20.8,29.87,WNW,292,3.6,10.3,41,0.00,,,0.00,WUHU21623XXSP,2013-04-01 21:04:00,
2013-04-01 17:09:00,43.3,21.0,29.87,SSE,157,2.2,6.3,40,0.00,,,0.00,WUHU21623XXSP,2013-04-01 21:09:00,
2013-04-01 17:14:00,43.3,20.6,29.87,NW,315,11.6,11.6,40,0.00,,,0.00,WUHU21623XXSP,2013-04-01 21:14:00,
2013-04-01 17:19:00,42.4,18.5,29.88,WNW,292,3.1,19.7,38,0.00,,,0.00,WUHU21623XXSP,2013-04-01 21:19:00,
2013-04-01 17:24:00,42.1,18.8,29.88,NW,315,5.6,19.7,39,0.00,,,0.00,WUHU21623XXSP,2013-04-01 21:24:00,
2013-04-01 17:29:00,41.7,18.5,29.88,WNW,292,4.3,6.7,39,0.00,,,0.00,WUHU21623XXSP,2013-04-01 21:29:00,
2013-04-01 17:34:00,41.7,19.1,29.88,WNW,292,8.5,12.1,40,0.00,,,0.00,WUHU21623XXSP,2013-04-01 21:34:00,
2013-04-01 17:39:00,41.7,17.2,29.88,North,0,7.8,12.1,37,0.00,,,0.00,WUHU21623XXSP,2013-04-01 21:39:00,
2013-04-01 17:44:00,41.5,17.2,29.88,NNW,337,8.1,8.1,38,0.00,,,0.00,WUHU21623XXSP,2013-04-01 21:44:00,
2013-04-01 17:49:00,41.5,17.7,29.88,WNW,292,5.8,8.1,38,0.00,,,0.00,WUHU21623XXSP,2013-04-01 21:49:00,
2013-04-01 17:54:00,41.4,17.5,29.89,WNW,292,5.6,5.8,38,0.00,,,0.00,WUHU21623XXSP,2013-04-01 21:54:00,
2013-04-01 17:59:00,41.2,17.3,29.88,South,180,0.9,5.6,38,0.00,,,0.00,WUHU21623XXSP,2013-04-01 21:59:00,
2013-04-01 18:04:00,41.2,17.3,29.88,NNW,337,10.5,10.5,38,0.00,,,0.00,WUHU21623XXSP,2013-04-01 22:04:00,
2013-04-01 18:09:00,41.2,16.7,29.89,NW,315,9.8,10.5,37,0.00,,,0.00,WUHU21623XXSP,2013-04-01 22:09:00,
2013-04-01 18:14:00,41.2,17.3,29.89,NW,315,5.6,9.8,38,0.00,,,0.00,WUHU21623XXSP,2013-04-01 22:14:00,
2013-04-01 18:19:00,41.2,17.3,29.89,NW,315,5.6,6.7,38,0.00,,,0.00,WUHU21623XXSP,2013-04-01 22:19:00,
2013-04-01 18:24:00,41.0,17.3,29.89,WNW,292,3.8,5.8,38,0.00,,,0.00,WUHU21623XXSP,2013-04-01 22:24:00,
2013-04-01 18:29:00,40.8,17.0,29.89,NW,315,7.8,7.8,38,0.00,,,0.00,WUHU21623XXSP,2013-04-01 22:29:00,
2013-04-01 18:34:00,40.8,17.0,29.89,NNW,337,6.0,11.2,38,0.00,,,0.00,WUHU21623XXSP,2013-04-01 22:34:00,
2013-04-01 18:39:00,40.8,17.0,29.90,NW,315,6.3,11.2,38,0.00,,,0.00,WUHU21623XXSP,2013-04-01 22:39:00,
2013-04-01 18:44:00,40.8,17.0,29.89,WNW,292,3.8,6.3,38,0.00,,,0.00,WUHU21623XXSP,2013-04-01 22:44:00,
2013-04-01 18:49:00,40.8,17.7,29.90,NNW,337,3.8,3.8,39,0.00,,,0.00,WUHU21623XXSP,2013-04-01 22:49:00,
2013-04-01 18:54:00,40.6,17.5,29.89,NW,315,1.8,5.1,39,0.00,,,0.00,WUHU21623XXSP,2013-04-01 22:54:00,
2013-04-01 18:59:00,40.3,17.2,29.90,NW,315,3.1,5.4,39,0.00,,,0.00,WUHU21623XXSP,2013-04-01 22:59:00,
2013-04-01 19:04:00,39.9,16.9,29.90,West,270,4.0,5.4,39,0.00,,,0.00,WUHU21623XXSP,2013-04-01 23:04:00,
2013-04-01 19:09:00,39.7,17.4,29.90,WNW,292,3.4,5.1,40,0.00,,,0.00,WUHU21623XXSP,2013-04-01 23:09:00,
2013-04-01 19:14:00,39.6,17.2,29.90,NNW,337,5.1,5.1,40,0.00,,,0.00,WUHU21623XXSP,2013-04-01 23:14:00,
2013-04-01 19:19:00,39.4,17.0,29.90,NW,315,3.8,6.9,40,0.00,,,0.00,WUHU21623XXSP,2013-04-01 23:19:00,
2013-04-01 19:24:00,39.0,17.2,29.91,NNW,337,5.6,6.9,41,0.00,,,0.00,WUHU21623XXSP,2013-04-01 23:24:00,
2013-04-01 19:29:00,39.0,17.2,29.90,WNW,292,3.6,5.6,41,0.00,,,0.00,WUHU21623XXSP,2013-04-01 23:29:00,
2013-04-01 19:34:00,38.8,17.1,29.91,West,270,3.1,5.6,41,0.00,,,0.00,WUHU21623XXSP,2013-04-01 23:34:00,
2013-04-01 19:39:00,38.7,16.9,29.91,WNW,292,4.9,5.6,41,0.00,,,0.00,WUHU21623XXSP,2013-04-01 23:39:00,
2013-04-01 19:44:00,38.5,16.8,29.91,NW,315,3.8,4.9,41,0.00,,,0.00,WUHU21623XXSP,2013-04-01 23:44:00,
2013-04-01 19:49:00,38.3,17.1,29.91,West,270,6.9,6.9,42,0.00,,,0.00,WUHU21623XXSP,2013-04-01 23:49:00,
2013-04-01 19:54:00,38.1,17.0,29.92,NW,315,9.4,9.4,42,0.00,,,0.00,WUHU21623XXSP,2013-04-01 23:54:00,
2013-04-01 19:59:00,37.9,16.8,29.91,NW,315,3.8,9.4,42,0.00,,,0.00,WUHU21623XXSP,2013-04-01 23:59:00,
2013-04-01 20:04:00,37.8,17.1,29.91,NNW,337,4.3,4.3,43,0.00,,,0.00,WUHU21623XXSP,2013-04-02 00:04:00,
2013-04-01 20:09:00,37.4,17.0,29.92,NW,315,4.0,4.3,43,0.00,,,0.00,WUHU21623XXSP,2013-04-02 00:09:00,
2013-04-01 20:14:00,37.2,16.7,29.92,West,270,7.4,7.4,43,0.00,,,0.00,WUHU21623XXSP,2013-04-02 00:14:00,
2013-04-01 20:19:00,37.2,16.7,29.92,SW,225,3.4,7.4,43,0.00,,,0.00,WUHU21623XXSP,2013-04-02 00:19:00,
2013-04-01 20:24:00,37.0,17.0,29.92,NW,315,2.2,7.4,44,0.00,,,0.00,WUHU21623XXSP,2013-04-02 00:24:00,
2013-04-01 20:29:00,36.9,16.9,29.92,NW,315,2.5,3.4,44,0.00,,,0.00,WUHU21623XXSP,2013-04-02 00:29:00,
2013-04-01 20:34:00,36.9,16.9,29.92,NW,315,2.9,2.9,44,0.00,,,0.00,WUHU21623XXSP,2013-04-02 00:34:00,
2013-04-01 20:39:00,36.7,16.7,29.92,NW,315,1.6,2.9,44,0.00,,,0.00,WUHU21623XXSP,2013-04-02 00:39:00,
2013-04-01 20:44:00,36.5,16.5,29.93,NW,315,3.1,3.1,44,0.00,,,0.00,WUHU21623XXSP,2013-04-02 00:44:00,
2013-04-01 20:49:00,36.5,16.7,29.92,NW,315,2.2,3.1,45,0.00,,,0.00,WUHU21623XXSP,2013-04-02 00:49:00,
2013-04-01 20:54:00,36.5,17.1,29.93,NW,315,1.3,2.5,45,0.00,,,0.00,WUHU21623XXSP,2013-04-02 00:54:00,
2013-04-01 20:59:00,36.5,17.1,29.93,NW,315,2.9,2.9,45,0.00,,,0.00,WUHU21623XXSP,2013-04-02 00:59:00,
2013-04-01 21:04:00,36.5,17.1,29.93,NNW,337,0.9,3.1,45,0.00,,,0.00,WUHU21623XXSP,2013-04-02 01:04:00,
2013-04-01 21:09:00,36.3,16.9,29.93,NNW,337,2.0,4.0,45,0.00,,,0.00,WUHU21623XXSP,2013-04-02 01:09:00,
2013-04-01 21:14:00,36.3,17.4,29.93,NW,315,0.0,4.0,46,0.00,,,0.00,WUHU21623XXSP,2013-04-02 01:14:00,
2013-04-01 21:19:00,36.1,17.4,29.93,NW,315,0.0,0.0,46,0.00,,,0.00,WUHU21623XXSP,2013-04-02 01:19:00,
2013-04-01 21:24:00,36.1,17.3,29.93,NW,315,2.2,2.2,46,0.00,,,0.00,WUHU21623XXSP,2013-04-02 01:24:00,
2013-04-01 21:29:00,35.8,16.9,29.93,NW,315,2.9,2.9,46,0.00,,,0.00,WUHU21623XXSP,2013-04-02 01:29:00,
2013-04-01 21:34:00,35.8,17.5,29.93,NW,315,2.5,2.9,47,0.00,,,0.00,WUHU21623XXSP,2013-04-02 01:34:00,
2013-04-01 21:39:00,35.8,17.5,29.93,NNW,337,2.9,2.9,47,0.00,,,0.00,WUHU21623XXSP,2013-04-02 01:39:00,
2013-04-01 21:44:00,35.8,17.5,29.94,NW,315,1.6,2.9,47,0.00,,,0.00,WUHU21623XXSP,2013-04-02 01:44:00,
2013-04-01 21:49:00,35.8,17.5,29.94,NNW,337,1.3,2.2,47,0.00,,,0.00,WUHU21623XXSP,2013-04-02 01:49:00,
2013-04-01 21:54:00,35.8,18.0,29.94,NW,315,1.6,1.6,48,0.00,,,0.00,WUHU21623XXSP,2013-04-02 01:54:00,
2013-04-01 21:59:00,35.8,18.0,29.94,NNW,337,4.0,4.0,48,0.00,,,0.00,WUHU21623XXSP,2013-04-02 01:59:00,
2013-04-01 22:04:00,35.8,18.0,29.94,NW,315,2.2,4.0,48,0.00,,,0.00,WUHU21623XXSP,2013-04-02 02:04:00,
2013-04-01 22:09:00,35.8,18.0,29.94,NW,315,0.9,4.0,48,0.00,,,0.00,WUHU21623XXSP,2013-04-02 02:09:00,
2013-04-01 22:14:00,35.4,17.6,29.94,NW,315,2.0,2.9,48,0.00,,,0.00,WUHU21623XXSP,2013-04-02 02:14:00,
2013-04-01 22:19:00,35.4,18.2,29.95,NNW,337,1.6,2.9,49,0.00,,,0.00,WUHU21623XXSP,2013-04-02 02:19:00,
2013-04-01 22:24:00,35.2,17.5,29.95,NW,315,2.2,2.2,48,0.00,,,0.00,WUHU21623XXSP,2013-04-02 02:24:00,
2013-04-01 22:29:00,35.1,17.8,29.95,NW,315,0.9,2.2,49,0.00,,,0.00,WUHU21623XXSP,2013-04-02 02:29:00,
2013-04-01 22:34:00,34.7,18.0,29.95,NW,315,0.9,2.2,50,0.00,,,0.00,WUHU21623XXSP,2013-04-02 02:34:00,
2013-04-01 22:39:00,34.3,17.6,29.94,NW,315,0.0,0.9,50,0.00,,,0.00,WUHU21623XXSP,2013-04-02 02:39:00,
2013-04-01 22:44:00,34.2,17.9,29.95,WNW,292,0.0,0.0,51,0.00,,,0.00,WUHU21623XXSP,2013-04-02 02:44:00,
2013-04-01 22:49:00,34.0,18.1,29.94,West,270,0.0,0.0,52,0.00,,,0.00,WUHU21623XXSP,2013-04-02 02:49:00,
2013-04-01 22:54:00,33.8,17.9,29.94,West,270,0.0,0.0,52,0.00,,,0.00,WUHU21623XXSP,2013-04-02 02:54:00,
2013-04-01 22:59:00,33.6,18.2,29.94,NW,315,0.0,0.0,53,0.00,,,0.00,WUHU21623XXSP,2013-04-02 02:59:00,
2013-04-01 23:04:00,33.4,18.2,29.95,NW,315,0.0,0.0,53,0.00,,,0.00,WUHU21623XXSP,2013-04-02 03:04:00,
2013-04-01 23:09:00,33.1,17.7,29.95,NW,315,0.0,0.0,53,0.00,,,0.00,WUHU21623XXSP,2013-04-02 03:09:00,
2013-04-01 23:14:00,32.7,17.8,29.95,NW,315,0.0,0.0,54,0.00,,,0.00,WUHU21623XXSP,2013-04-02 03:14:00,
2013-04-01 23:19:00,32.4,17.9,29.95,NW,315,1.3,1.3,55,0.00,,,0.00,WUHU21623XXSP,2013-04-02 03:19:00,
2013-04-01 23:24:00,32.2,17.8,29.95,NNW,337,3.1,3.1,55,0.00,,,0.00,WUHU21623XXSP,2013-04-02 03:24:00,
2013-04-01 23:29:00,32.4,17.8,29.95,NW,315,3.1,3.1,54,0.00,,,0.00,WUHU21623XXSP,2013-04-02 03:29:00,
2013-04-01 23:34:00,32.4,17.5,29.95,NW,315,3.1,3.1,54,0.00,,,0.00,WUHU21623XXSP,2013-04-02 03:34:00,
2013-04-01 23:39:00,32.5,17.7,29.96,NW,315,3.1,3.1,54,0.00,,,0.00,WUHU21623XXSP,2013-04-02 03:39:00,
2013-04-01 23:44:00,32.5,17.7,29.95,NNW,337,1.1,3.1,54,0.00,,,0.00,WUHU21623XXSP,2013-04-02 03:44:00,
2013-04-01 23:49:00,32.5,17.2,29.95,NW,315,2.7,2.7,53,0.00,,,0.00,WUHU21623XXSP,2013-04-02 03:49:00,
2013-04-01 23:54:00,32.4,17.1,29.95,NW,315,0.0,2.7,53,0.00,,,0.00,WUHU21623XXSP,2013-04-02 03:54:00,
2013-04-01 23:59:00,32.2,17.3,29.95,NW,315,2.2,2.7,54,0.00,,,0.00,WUHU21623XXSP,2013-04-02 03:59:00,